QLK223 YBCS-YBSU
Flight info
| Callsign | QLK223 |
|---|---|
| Flight time | N/A |
| Altitude | 37000 |
| Route | AKROM1/15 AKROM Y177 RUROX/N0349F190 W727 SUSGI W534 SEBVA |
| Aircraft | A319/M-SDE3FGHIRWY/LB1 |
Departure
| Time | 2026-04-27 08:39 |
|---|---|
| Airport | Cairns International Airport (YBCS) |
Arrival
| Time | N/A |
|---|---|
| Airport | Sunshine Coast Airport (YBSU) |
| Time | Latitude | Longitude | Altitude | Speed | Heading |
|---|---|---|---|---|---|
| 2026-04-27 08:13 | -16.87827 | 145.75311 | 14 ft | 0 kts | 66° |
| 2026-04-27 08:21 | -16.87833 | 145.75296 | 16 ft | 2 kts | 66° |
| 2026-04-27 08:21 | -16.87840 | 145.75281 | 16 ft | 2 kts | 66° |
| 2026-04-27 08:22 | -16.87847 | 145.75265 | 15 ft | 2 kts | 65° |
| 2026-04-27 08:22 | -16.87854 | 145.75249 | 17 ft | 2 kts | 64° |
| 2026-04-27 08:22 | -16.87861 | 145.75234 | 16 ft | 2 kts | 59° |
| 2026-04-27 08:22 | -16.87870 | 145.75220 | 17 ft | 2 kts | 35° |
| 2026-04-27 08:23 | -16.87878 | 145.75215 | 16 ft | 0 kts | 25° |
| 2026-04-27 08:24 | -16.87876 | 145.75215 | 15 ft | 1 kts | 23° |
| 2026-04-27 08:24 | -16.87848 | 145.75215 | 15 ft | 7 kts | 349° |
| 2026-04-27 08:24 | -16.87778 | 145.75185 | 16 ft | 14 kts | 336° |
| 2026-04-27 08:25 | -16.87683 | 145.75142 | 16 ft | 14 kts | 336° |
| 2026-04-27 08:25 | -16.87583 | 145.75111 | 15 ft | 16 kts | 339° |
| 2026-04-27 08:25 | -16.87485 | 145.75067 | 17 ft | 9 kts | 336° |
| 2026-04-27 08:25 | -16.87431 | 145.75042 | 18 ft | 9 kts | 336° |
| 2026-04-27 08:26 | -16.87355 | 145.75005 | 18 ft | 15 kts | 328° |
| 2026-04-27 08:26 | -16.87298 | 145.74907 | 17 ft | 18 kts | 292° |
| 2026-04-27 08:26 | -16.87210 | 145.74837 | 16 ft | 10 kts | 334° |
| 2026-04-27 08:26 | -16.87182 | 145.74825 | 16 ft | 0 kts | 337° |
| 2026-04-27 08:28 | -16.87157 | 145.74813 | 16 ft | 9 kts | 337° |
| 2026-04-27 08:28 | -16.87085 | 145.74780 | 16 ft | 3 kts | 334° |
| 2026-04-27 08:28 | -16.87061 | 145.74764 | 15 ft | 0 kts | 316° |
| 2026-04-27 08:29 | -16.87052 | 145.74748 | 16 ft | 0 kts | 295° |
| 2026-04-27 08:33 | -16.87049 | 145.74738 | 15 ft | 0 kts | 286° |
| 2026-04-27 08:33 | -16.87048 | 145.74719 | 14 ft | 5 kts | 264° |
| 2026-04-27 08:33 | -16.87053 | 145.74699 | 13 ft | 0 kts | 251° |
| 2026-04-27 08:37 | -16.87055 | 145.74694 | 13 ft | 5 kts | 250° |
| 2026-04-27 08:37 | -16.87096 | 145.74633 | 13 ft | 14 kts | 216° |
| 2026-04-27 08:37 | -16.87179 | 145.74627 | 14 ft | 3 kts | 161° |
| 2026-04-27 08:38 | -16.87188 | 145.74631 | 14 ft | 0 kts | 156° |
| 2026-04-27 08:38 | -16.87190 | 145.74632 | 14 ft | 4 kts | 156° |
| 2026-04-27 08:38 | -16.87473 | 145.74760 | 20 ft | 87 kts | 156° |
| 2026-04-27 08:38 | -16.88264 | 145.75117 | 41 ft | 155 kts | 156° |
| 2026-04-27 08:39 | -16.89232 | 145.75561 | 417 ft | 138 kts | 157° |
| 2026-04-27 08:39 | -16.89961 | 145.76110 | 595 ft | 133 kts | 134° |
| 2026-04-27 08:39 | -16.90410 | 145.76984 | 1031 ft | 142 kts | 109° |
| 2026-04-27 08:39 | -16.90442 | 145.78042 | 1541 ft | 151 kts | 82° |
| 2026-04-27 08:40 | -16.89933 | 145.79074 | 1871 ft | 175 kts | 50° |
| 2026-04-27 08:40 | -16.88900 | 145.79917 | 2157 ft | 200 kts | 41° |
| 2026-04-27 08:40 | -16.87747 | 145.80797 | 2682 ft | 208 kts | 40° |
| 2026-04-27 08:40 | -16.86559 | 145.81706 | 3342 ft | 212 kts | 41° |
| 2026-04-27 08:41 | -16.85385 | 145.82635 | 4087 ft | 212 kts | 47° |
| 2026-04-27 08:41 | -16.84577 | 145.83874 | 4814 ft | 206 kts | 76° |
| 2026-04-27 08:41 | -16.84621 | 145.85373 | 5185 ft | 218 kts | 118° |
| 2026-04-27 08:41 | -16.85685 | 145.86568 | 5589 ft | 239 kts | 147° |
| 2026-04-27 08:42 | -16.87185 | 145.87426 | 6199 ft | 256 kts | 154° |
| 2026-04-27 08:42 | -16.88831 | 145.88216 | 6999 ft | 263 kts | 154° |
| 2026-04-27 08:42 | -16.90507 | 145.89040 | 7831 ft | 269 kts | 153° |
| 2026-04-27 08:42 | -16.92183 | 145.89928 | 8708 ft | 272 kts | 152° |
| 2026-04-27 08:43 | -16.93869 | 145.90881 | 9533 ft | 278 kts | 150° |
| 2026-04-27 08:43 | -16.95572 | 145.91892 | 10254 ft | 287 kts | 150° |
| 2026-04-27 08:43 | -16.97366 | 145.92990 | 10511 ft | 310 kts | 150° |
| 2026-04-27 08:43 | -16.99278 | 145.94179 | 10916 ft | 325 kts | 150° |
| 2026-04-27 08:44 | -17.01240 | 145.95404 | 11516 ft | 333 kts | 151° |
| 2026-04-27 08:44 | -17.03247 | 145.96661 | 12133 ft | 339 kts | 152° |
| 2026-04-27 08:44 | -17.05286 | 145.97940 | 12735 ft | 345 kts | 152° |
| 2026-04-27 08:44 | -17.07369 | 145.99248 | 13364 ft | 351 kts | 152° |
| 2026-04-27 08:45 | -17.09473 | 146.00569 | 13941 ft | 356 kts | 153° |
| 2026-04-27 08:45 | -17.11613 | 146.01913 | 14489 ft | 360 kts | 153° |
| 2026-04-27 08:45 | -17.13780 | 146.03274 | 15051 ft | 364 kts | 152° |
| 2026-04-27 08:45 | -17.15962 | 146.04641 | 15614 ft | 367 kts | 152° |
| 2026-04-27 08:46 | -17.18137 | 146.06004 | 16166 ft | 371 kts | 152° |
| 2026-04-27 08:46 | -17.20386 | 146.07413 | 16730 ft | 374 kts | 152° |
| 2026-04-27 08:46 | -17.22598 | 146.08798 | 17279 ft | 377 kts | 152° |
| 2026-04-27 08:46 | -17.24867 | 146.10219 | 17836 ft | 381 kts | 152° |
| 2026-04-27 08:47 | -17.27175 | 146.11666 | 18377 ft | 384 kts | 152° |
| 2026-04-27 08:47 | -17.29475 | 146.13106 | 18850 ft | 387 kts | 152° |
| 2026-04-27 08:47 | -17.31775 | 146.14547 | 19337 ft | 390 kts | 152° |
| 2026-04-27 08:47 | -17.34142 | 146.16032 | 19840 ft | 393 kts | 152° |
| 2026-04-27 08:48 | -17.36460 | 146.17491 | 20336 ft | 396 kts | 152° |
| 2026-04-27 08:48 | -17.38830 | 146.18984 | 20831 ft | 399 kts | 152° |
| 2026-04-27 08:48 | -17.41215 | 146.20487 | 21325 ft | 401 kts | 152° |
| 2026-04-27 08:48 | -17.43620 | 146.22000 | 21815 ft | 404 kts | 152° |
| 2026-04-27 08:49 | -17.46043 | 146.23522 | 22293 ft | 407 kts | 152° |
| 2026-04-27 08:49 | -17.48482 | 146.25051 | 22780 ft | 410 kts | 152° |
| 2026-04-27 08:49 | -17.50945 | 146.26595 | 23250 ft | 414 kts | 152° |
| 2026-04-27 08:49 | -17.53420 | 146.28148 | 23699 ft | 417 kts | 152° |
| 2026-04-27 08:50 | -17.55918 | 146.29719 | 24098 ft | 419 kts | 152° |
| 2026-04-27 08:50 | -17.58423 | 146.31298 | 24501 ft | 422 kts | 152° |
| 2026-04-27 08:50 | -17.60947 | 146.32892 | 24908 ft | 424 kts | 152° |
| 2026-04-27 08:50 | -17.63483 | 146.34492 | 25305 ft | 426 kts | 152° |
| 2026-04-27 08:51 | -17.66032 | 146.36100 | 25706 ft | 429 kts | 152° |
| 2026-04-27 08:51 | -17.68597 | 146.37719 | 26103 ft | 431 kts | 152° |
| 2026-04-27 08:51 | -17.71145 | 146.39328 | 26491 ft | 434 kts | 152° |
| 2026-04-27 08:51 | -17.73732 | 146.40961 | 26884 ft | 436 kts | 152° |
| 2026-04-27 08:52 | -17.76338 | 146.42606 | 27270 ft | 438 kts | 152° |
| 2026-04-27 08:52 | -17.78954 | 146.44255 | 27657 ft | 440 kts | 152° |
| 2026-04-27 08:52 | -17.81623 | 146.45938 | 28052 ft | 443 kts | 152° |
| 2026-04-27 08:52 | -17.84237 | 146.47587 | 28432 ft | 445 kts | 152° |
| 2026-04-27 08:53 | -17.86898 | 146.49269 | 28813 ft | 448 kts | 152° |
| 2026-04-27 08:53 | -17.89574 | 146.50963 | 29192 ft | 450 kts | 152° |
| 2026-04-27 08:53 | -17.92250 | 146.52657 | 29557 ft | 453 kts | 152° |
| 2026-04-27 08:53 | -17.94968 | 146.54377 | 29917 ft | 456 kts | 152° |
| 2026-04-27 08:54 | -17.97687 | 146.56099 | 30240 ft | 458 kts | 152° |
| 2026-04-27 08:54 | -18.00427 | 146.57836 | 30524 ft | 461 kts | 152° |
| 2026-04-27 08:54 | -18.03184 | 146.59579 | 30801 ft | 464 kts | 152° |
| 2026-04-27 08:54 | -18.05956 | 146.61330 | 31072 ft | 466 kts | 152° |
| 2026-04-27 08:55 | -18.08745 | 146.63094 | 31337 ft | 469 kts | 152° |
| 2026-04-27 08:55 | -18.11541 | 146.64867 | 31604 ft | 472 kts | 152° |
| 2026-04-27 08:55 | -18.14364 | 146.66661 | 31954 ft | 472 kts | 152° |
| 2026-04-27 08:55 | -18.17173 | 146.68448 | 32337 ft | 472 kts | 152° |
| 2026-04-27 08:56 | -18.19983 | 146.70233 | 32715 ft | 471 kts | 152° |
| 2026-04-27 08:56 | -18.22783 | 146.72013 | 33091 ft | 471 kts | 152° |
| 2026-04-27 08:56 | -18.25597 | 146.73801 | 33478 ft | 471 kts | 152° |
| 2026-04-27 08:56 | -18.28398 | 146.75583 | 33863 ft | 471 kts | 152° |
| 2026-04-27 08:57 | -18.34012 | 146.79154 | 34504 ft | 472 kts | 152° |
| 2026-04-27 08:57 | -18.36833 | 146.80933 | 34781 ft | 473 kts | 153° |
| 2026-04-27 08:57 | -18.39690 | 146.82663 | 35052 ft | 474 kts | 154° |
| 2026-04-27 08:58 | -18.42572 | 146.84346 | 35322 ft | 474 kts | 155° |
| 2026-04-27 08:58 | -18.45471 | 146.86010 | 35593 ft | 475 kts | 155° |
| 2026-04-27 08:58 | -18.48348 | 146.87656 | 35867 ft | 476 kts | 156° |
| 2026-04-27 08:58 | -18.51250 | 146.89325 | 36134 ft | 477 kts | 155° |
| 2026-04-27 08:59 | -18.54158 | 146.91015 | 36397 ft | 477 kts | 155° |
| 2026-04-27 08:59 | -18.57102 | 146.92741 | 36667 ft | 478 kts | 155° |
| 2026-04-27 08:59 | -18.60004 | 146.94452 | 36916 ft | 479 kts | 155° |
| 2026-04-27 09:00 | -18.65874 | 146.97919 | 37011 ft | 490 kts | 155° |
| 2026-04-27 09:00 | -18.71871 | 147.01441 | 37010 ft | 502 kts | 155° |
| 2026-04-27 09:01 | -18.78046 | 147.05073 | 37013 ft | 514 kts | 155° |
| 2026-04-27 09:01 | -18.81182 | 147.06926 | 37147 ft | 516 kts | 154° |
| 2026-04-27 09:01 | -18.84261 | 147.08777 | 37722 ft | 509 kts | 154° |
| 2026-04-27 09:01 | -18.87316 | 147.10656 | 38296 ft | 503 kts | 153° |
| 2026-04-27 09:02 | -18.90296 | 147.12553 | 38788 ft | 491 kts | 154° |
| 2026-04-27 09:02 | -18.94447 | 147.15015 | 38636 ft | 478 kts | 156° |
| 2026-04-27 09:03 | -18.97551 | 147.16816 | 39382 ft | 438 kts | 155° |